Time;durP1;ratioP1;P1;durP2;ratioP2;P2;SDS_P1;SDS_P2;PMS_P1;PMS_P2;Temp;Humidity;BMP_temperature;BMP_pressure;BME280_temperature;BME280_humidity;BME280_pressure;Samples;Min_cycle;Max_cycle;Signal;HPM_P1;HPM_P2
2023/05/30 00:00:22;;;;;;;12.85;3.80;;;15.70;87.00;;;;;;4198876;28;20049;-59
2023/05/30 00:02:24;;;;;;;11.50;3.45;;;15.70;87.00;;;;;;4198494;28;20054;-58
2023/05/30 00:04:26;;;;;;;13.18;4.00;;;15.70;87.30;;;;;;4198576;28;20044;-57
2023/05/30 00:06:29;;;;;;;14.65;4.05;;;15.60;87.20;;;;;;4197863;28;20040;-57
2023/05/30 00:08:32;;;;;;;13.70;3.70;;;15.60;87.30;;;;;;4198750;28;20051;-56
2023/05/30 00:10:35;;;;;;;14.40;3.58;;;15.60;87.50;;;;;;4199654;28;20486;-60
2023/05/30 00:12:37;;;;;;;11.27;3.53;;;15.50;87.40;;;;;;4200415;28;20060;-57
2023/05/30 00:14:40;;;;;;;15.20;3.67;;;15.50;87.60;;;;;;4199099;28;20041;-57
2023/05/30 00:16:42;;;;;;;13.50;3.42;;;15.50;87.50;;;;;;4197551;28;20056;-58
2023/05/30 00:18:44;;;;;;;13.20;4.00;;;15.50;87.70;;;;;;4198280;28;20118;-56
2023/05/30 00:20:47;;;;;;;11.95;4.18;;;15.50;87.90;;;;;;4198297;28;20094;-55
2023/05/30 00:22:49;;;;;;;14.38;3.70;;;15.40;88.10;;;;;;4198333;28;20048;-58
2023/05/30 00:24:53;;;;;;;19.20;4.03;;;15.40;87.90;;;;;;4198536;28;20048;-57
2023/05/30 00:26:55;;;;;;;18.17;4.28;;;15.40;88.00;;;;;;4207349;28;20044;-57
2023/05/30 00:28:57;;;;;;;17.50;3.75;;;15.40;87.90;;;;;;4215080;28;20047;-59
2023/05/30 00:31:00;;;;;;;18.27;4.65;;;15.50;88.10;;;;;;4214967;28;20124;-58
2023/05/30 00:33:02;;;;;;;13.82;4.15;;;15.40;88.40;;;;;;4214676;28;20064;-58
2023/05/30 00:35:05;;;;;;;13.40;4.20;;;15.30;88.50;;;;;;4214857;28;20087;-56
2023/05/30 00:37:08;;;;;;;17.92;4.88;;;15.40;88.50;;;;;;4213715;28;20124;-58
2023/05/30 00:39:15;;;;;;;18.27;4.63;;;15.30;88.60;;;;;;4196965;28;20051;-58
2023/05/30 00:41:18;;;;;;;15.63;3.80;;;15.40;88.70;;;;;;4198062;28;20470;-57
2023/05/30 00:43:22;;;;;;;17.48;4.65;;;15.30;88.70;;;;;;4196195;28;20478;-58
2023/05/30 00:45:24;;;;;;;15.52;3.97;;;15.30;88.70;;;;;;4198148;28;20483;-57
2023/05/30 00:47:26;;;;;;;18.15;4.07;;;15.30;88.70;;;;;;4196602;28;20051;-58
2023/05/30 00:49:29;;;;;;;19.90;4.43;;;15.30;89.00;;;;;;4197890;28;20413;-57
2023/05/30 00:51:32;;;;;;;19.10;4.47;;;15.30;89.00;;;;;;4198058;28;20048;-57
2023/05/30 00:53:35;;;;;;;14.75;3.60;;;15.30;89.10;;;;;;4197740;28;20119;-57
2023/05/30 00:55:37;;;;;;;13.48;4.25;;;15.20;89.40;;;;;;4197020;28;20504;-57
2023/05/30 00:57:42;;;;;;;15.48;4.43;;;15.20;89.50;;;;;;4197757;28;20080;-59
2023/05/30 00:59:44;;;;;;;;;;;15.20;89.60;;;;;;4197597;28;20044;-58
2023/05/30 01:01:47;;;;;;;17.38;4.15;;;15.10;89.70;;;;;;4195761;28;19963;-57
2023/05/30 01:03:50;;;;;;;18.92;4.70;;;15.00;89.90;;;;;;4197093;28;20082;-57
2023/05/30 01:05:53;;;;;;;16.25;4.70;;;15.10;89.90;;;;;;4196645;28;20040;-57
2023/05/30 01:07:55;;;;;;;15.02;4.35;;;15.00;90.00;;;;;;4197685;28;20047;-58
2023/05/30 01:09:58;;;;;;;20.15;4.70;;;15.10;90.00;;;;;;4197595;28;20048;-57
2023/05/30 01:12:09;;;;;;;14.80;4.40;;;15.10;90.10;;;;;;4197936;28;20048;-57
2023/05/30 01:14:17;;;;;;;20.35;4.50;;;14.90;90.10;;;;;;4197542;28;20083;-58
2023/05/30 01:16:25;;;;;;;17.80;4.68;;;15.00;90.20;;;;;;4196063;28;20129;-57
2023/05/30 01:18:37;;;;;;;15.75;4.70;;;15.00;90.20;;;;;;4197322;28;20044;-58
2023/05/30 01:20:41;;;;;;;17.45;4.53;;;15.00;90.30;;;;;;4197276;28;20044;-57
2023/05/30 01:23:13;;;;;;;16.23;5.13;;;15.00;90.40;;;;;;4197457;28;20052;-58
2023/05/30 01:25:26;;;;;;;13.52;4.63;;;15.00;90.40;;;;;;4197570;28;20044;-58
2023/05/30 01:27:39;;;;;;;24.92;5.43;;;14.90;90.50;;;;;;4211277;28;20131;-57
2023/05/30 01:29:44;;;;;;;19.50;5.28;;;14.80;90.50;;;;;;4214329;28;20048;-56
2023/05/30 01:31:47;;;;;;;17.60;4.47;;;14.80;90.60;;;;;;4214469;28;20040;-58
2023/05/30 01:33:50;;;;;;;18.23;5.07;;;14.70;90.60;;;;;;4214245;28;20044;-57
2023/05/30 01:35:53;;;;;;;16.25;4.55;;;14.80;90.60;;;;;;4213205;28;20036;-56
2023/05/30 01:37:54;;;;;;;22.58;4.82;;;14.80;90.70;;;;;;4195717;28;20063;-57
2023/05/30 01:39:59;;;;;;;22.45;4.72;;;14.70;90.70;;;;;;4197367;28;20040;-58
2023/05/30 01:42:11;;;;;;;22.80;4.70;;;14.60;90.80;;;;;;4197122;28;20052;-55
2023/05/30 01:44:25;;;;;;;20.48;4.43;;;14.70;90.90;;;;;;4197383;28;20063;-55
2023/05/30 01:46:33;;;;;;;20.08;4.30;;;14.60;90.90;;;;;;4195818;28;20037;-56
2023/05/30 01:48:46;;;;;;;16.20;4.85;;;14.70;90.90;;;;;;4197598;28;20651;-55
2023/05/30 01:50:50;;;;;;;26.05;5.25;;;14.70;91.00;;;;;;4198376;28;20040;-55
2023/05/30 01:52:58;;;;;;;18.45;4.53;;;14.70;90.90;;;;;;4198711;28;20048;-57
2023/05/30 01:55:04;;;;;;;22.63;4.38;;;14.60;90.90;;;;;;4197582;28;20530;-58
2023/05/30 01:57:11;;;;;;;20.65;5.38;;;14.50;91.00;;;;;;4194805;28;20414;-57
2023/05/30 01:59:15;;;;;;;18.65;4.57;;;14.50;91.10;;;;;;4195804;28;20206;-57
2023/05/30 02:01:19;;;;;;;22.80;5.22;;;14.50;91.30;;;;;;4195685;28;20497;-57
2023/05/30 02:03:23;;;;;;;;;;;14.40;91.20;;;;;;4197797;28;20049;-58
2023/05/30 02:05:25;;;;;;;17.77;4.93;;;14.50;91.20;;;;;;4196928;28;19932;-58
2023/05/30 02:07:28;;;;;;;21.10;5.35;;;14.40;91.30;;;;;;4196230;28;20047;-58
2023/05/30 02:09:30;;;;;;;18.35;5.45;;;14.40;91.40;;;;;;4196050;28;20072;-55
2023/05/30 02:11:32;;;;;;;20.05;5.00;;;14.40;91.40;;;;;;4197197;28;20044;-54
2023/05/30 02:13:34;;;;;;;23.20;4.63;;;14.30;91.40;;;;;;4197453;28;20458;-54
2023/05/30 02:15:37;;;;;;;18.30;4.68;;;14.30;91.50;;;;;;4200342;28;20072;-56
2023/05/30 02:17:39;;;;;;;16.77;4.50;;;14.30;91.50;;;;;;4199352;28;20052;-55
2023/05/30 02:19:42;;;;;;;17.30;4.38;;;14.30;91.70;;;;;;4200528;28;20445;-58
2023/05/30 02:21:45;;;;;;;22.58;5.32;;;14.30;91.60;;;;;;4200073;28;20144;-57
2023/05/30 02:23:47;;;;;;;21.35;4.97;;;14.30;91.50;;;;;;4200444;28;20049;-58
2023/05/30 02:25:50;;;;;;;16.20;4.85;;;14.30;91.60;;;;;;4201128;28;20044;-57
2023/05/30 02:27:52;;;;;;;21.02;5.25;;;14.20;91.70;;;;;;4216185;28;20386;-58
2023/05/30 02:29:54;;;;;;;19.73;5.13;;;14.10;91.70;;;;;;4216554;28;20118;-57
2023/05/30 02:31:57;;;;;;;17.13;4.20;;;14.20;91.70;;;;;;4216905;28;20075;-59
2023/05/30 02:33:59;;;;;;;20.25;4.55;;;14.20;91.80;;;;;;4216891;28;20080;-57
2023/05/30 02:36:03;;;;;;;17.17;4.63;;;14.20;91.80;;;;;;4216009;28;20048;-57
2023/05/30 02:38:05;;;;;;;21.00;4.90;;;14.10;91.90;;;;;;4212895;28;20524;-58
2023/05/30 02:40:09;;;;;;;18.63;5.07;;;14.10;91.90;;;;;;4199804;28;20045;-57
2023/05/30 02:42:11;;;;;;;16.42;4.90;;;14.10;91.80;;;;;;4199895;28;20102;-57
2023/05/30 02:44:14;;;;;;;22.40;4.90;;;14.10;91.90;;;;;;4199903;28;20072;-57
2023/05/30 02:46:16;;;;;;;15.35;4.80;;;14.10;91.90;;;;;;4198845;28;20045;-57
2023/05/30 02:48:18;;;;;;;22.33;5.50;;;14.10;91.80;;;;;;4199950;28;20041;-57
2023/05/30 02:50:21;;;;;;;19.85;5.00;;;14.00;91.80;;;;;;4199929;28;20072;-58
2023/05/30 02:52:24;;;;;;;19.55;4.20;;;14.10;91.80;;;;;;4199798;28;20050;-57
2023/05/30 02:54:27;;;;;;;22.65;5.18;;;13.90;91.90;;;;;;4199744;28;20045;-55
2023/05/30 02:56:29;;;;;;;14.10;4.35;;;14.00;92.00;;;;;;4198750;28;20045;-57
2023/05/30 02:58:31;;;;;;;22.02;4.90;;;13.90;91.90;;;;;;4199025;28;20254;-57
2023/05/30 03:00:33;;;;;;;19.38;4.65;;;13.90;91.90;;;;;;4199879;28;20049;-57
2023/05/30 03:02:35;;;;;;;18.95;4.68;;;13.90;92.00;;;;;;4199976;28;20391;-57
2023/05/30 03:04:37;;;;;;;20.85;4.78;;;13.90;91.90;;;;;;4199629;28;20048;-57
2023/05/30 03:06:40;;;;;;;15.88;5.15;;;13.80;92.10;;;;;;4198367;28;20568;-57
2023/05/30 03:08:44;;;;;;;28.60;5.63;;;13.80;91.90;;;;;;4198567;28;20087;-56
2023/05/30 03:10:46;;;;;;;19.60;5.40;;;13.80;92.10;;;;;;4199762;28;20072;-57
2023/05/30 03:12:48;;;;;;;17.42;5.00;;;13.70;92.10;;;;;;4199741;28;20072;-56
2023/05/30 03:14:50;;;;;;;17.02;4.15;;;13.70;92.10;;;;;;4200169;28;20045;-57
2023/05/30 03:16:54;;;;;;;18.92;5.30;;;13.70;92.10;;;;;;4199548;28;20045;-55
2023/05/30 03:18:56;;;;;;;24.33;5.07;;;13.70;92.20;;;;;;4201998;28;20478;-56
2023/05/30 03:20:58;;;;;;;19.83;4.78;;;13.70;92.10;;;;;;4199419;28;20537;-55
2023/05/30 03:23:02;;;;;;;17.95;5.13;;;13.60;92.10;;;;;;4199508;28;20135;-55
2023/05/30 03:25:08;;;;;;;22.15;5.18;;;13.60;92.20;;;;;;4198531;28;20098;-55
2023/05/30 03:27:11;;;;;;;14.57;4.65;;;13.60;92.30;;;;;;4196578;28;20049;-56
2023/05/30 03:29:13;;;;;;;17.65;4.93;;;13.60;92.20;;;;;;4216165;28;20131;-58
2023/05/30 03:31:15;;;;;;;18.52;4.90;;;13.60;92.20;;;;;;4217118;28;20074;-59
2023/05/30 03:33:19;;;;;;;18.88;4.68;;;13.60;92.20;;;;;;4217521;28;20059;-56
2023/05/30 03:35:21;;;;;;;25.00;5.73;;;13.60;92.20;;;;;;4199349;28;20048;-55
2023/05/30 03:37:23;;;;;;;16.40;4.80;;;13.50;92.20;;;;;;4198449;28;20469;-55
2023/05/30 03:39:25;;;;;;;20.42;4.63;;;13.50;92.20;;;;;;4213713;28;20520;-56
2023/05/30 03:41:28;;;;;;;19.00;4.32;;;13.50;92.20;;;;;;4215787;28;20101;-55
2023/05/30 03:43:30;;;;;;;22.90;4.38;;;13.50;92.20;;;;;;4215447;28;20393;-57
2023/05/30 03:45:33;;;;;;;20.63;4.85;;;13.50;92.10;;;;;;4215774;28;20448;-58
2023/05/30 03:47:35;;;;;;;20.60;4.22;;;13.40;92.10;;;;;;4214712;28;20111;-58
2023/05/30 03:49:37;;;;;;;14.60;4.25;;;13.50;92.20;;;;;;4215691;28;20068;-57
2023/05/30 03:51:39;;;;;;;23.88;4.95;;;13.40;92.20;;;;;;4215557;28;20076;-58
2023/05/30 03:53:42;;;;;;;16.60;4.25;;;13.50;92.20;;;;;;4215334;28;20512;-58
2023/05/30 03:55:44;;;;;;;19.67;4.53;;;13.40;92.10;;;;;;4215128;28;20058;-57
2023/05/30 03:57:47;;;;;;;22.77;5.65;;;13.40;92.30;;;;;;4214318;28;20047;-58
2023/05/30 03:59:50;;;;;;;14.60;4.20;;;13.30;92.20;;;;;;4197489;28;20060;-58
2023/05/30 04:01:52;;;;;;;18.63;4.35;;;13.30;92.30;;;;;;4197377;28;20072;-57
2023/05/30 04:03:54;;;;;;;21.58;4.78;;;13.40;92.20;;;;;;4215504;28;20447;-57
2023/05/30 04:05:56;;;;;;;21.08;5.10;;;13.40;92.20;;;;;;4215200;28;20048;-56
2023/05/30 04:07:58;;;;;;;18.15;4.50;;;13.40;92.10;;;;;;4196391;28;20044;-57
2023/05/30 04:10:00;;;;;;;18.23;4.50;;;13.40;92.20;;;;;;4214922;28;20478;-56
2023/05/30 04:12:03;;;;;;;19.80;4.47;;;13.30;92.20;;;;;;4215327;28;20300;-56
2023/05/30 04:14:06;;;;;;;21.58;4.70;;;13.30;92.20;;;;;;4215359;28;20048;-56
2023/05/30 04:16:08;;;;;;;20.40;4.93;;;13.30;92.20;;;;;;4215238;28;20453;-55
2023/05/30 04:18:11;;;;;;;16.55;4.50;;;13.40;92.10;;;;;;4214456;28;20059;-54
2023/05/30 04:20:14;;;;;;;24.42;5.20;;;13.40;92.20;;;;;;4215547;28;20052;-58
2023/05/30 04:22:17;;;;;;;17.83;4.30;;;13.30;92.00;;;;;;4197059;28;20090;-58
2023/05/30 04:24:21;;;;;;;16.38;4.00;;;13.40;92.20;;;;;;4214974;28;20048;-56
2023/05/30 04:26:25;;;;;;;23.02;4.75;;;13.40;92.00;;;;;;4214149;28;20390;-57
2023/05/30 04:28:30;;;;;;;19.80;4.97;;;13.40;92.00;;;;;;4214941;28;20101;-54
2023/05/30 04:30:34;;;;;;;15.18;4.45;;;13.40;92.00;;;;;;4215301;28;20131;-55
2023/05/30 04:32:36;;;;;;;21.58;4.88;;;13.30;91.80;;;;;;4215384;28;20044;-57
2023/05/30 04:34:39;;;;;;;17.65;4.72;;;13.40;92.00;;;;;;4214891;28;20494;-55
2023/05/30 04:36:44;;;;;;;20.55;4.32;;;13.40;92.00;;;;;;4214022;28;20466;-55
2023/05/30 04:38:52;;;;;;;20.98;5.00;;;13.40;92.00;;;;;;4205335;28;20497;-54
2023/05/30 04:40:54;;;;;;;17.27;4.97;;;13.40;91.80;;;;;;4198161;28;20560;-54
2023/05/30 04:42:56;;;;;;;21.48;4.80;;;13.40;91.80;;;;;;4197880;28;20466;-59
2023/05/30 04:45:00;;;;;;;19.55;4.85;;;13.40;91.90;;;;;;4198227;28;20556;-55
2023/05/30 04:47:05;;;;;;;14.65;4.47;;;13.50;91.80;;;;;;4197055;28;20044;-55
2023/05/30 04:49:07;;;;;;;20.02;3.63;;;13.40;91.70;;;;;;4197869;28;20117;-55
2023/05/30 04:51:09;;;;;;;15.13;4.45;;;13.50;91.70;;;;;;4198112;28;20059;-55
2023/05/30 04:53:11;;;;;;;14.80;4.18;;;13.50;91.50;;;;;;4198046;28;20136;-55
2023/05/30 04:55:13;;;;;;;19.33;4.30;;;13.60;91.60;;;;;;4197674;28;20451;-55
2023/05/30 04:57:15;;;;;;;19.05;4.30;;;13.60;91.50;;;;;;4196933;28;20102;-58
2023/05/30 04:59:17;;;;;;;16.63;4.57;;;13.60;91.40;;;;;;4197855;28;20048;-57
2023/05/30 05:01:20;;;;;;;17.63;4.78;;;13.50;91.30;;;;;;4196811;28;20045;-57
2023/05/30 05:03:24;;;;;;;17.15;3.63;;;13.50;91.50;;;;;;4198029;28;20040;-57
2023/05/30 05:05:26;;;;;;;17.75;5.25;;;13.50;91.60;;;;;;4198902;28;20048;-57
2023/05/30 05:07:29;;;;;;;17.67;4.57;;;13.50;91.60;;;;;;4197296;28;20111;-54
2023/05/30 05:09:42;;;;;;;19.42;4.90;;;13.30;91.30;;;;;;4197836;28;20490;-56
2023/05/30 05:11:44;;;;;;;22.88;5.05;;;13.40;91.50;;;;;;4199644;28;20087;-58
2023/05/30 05:13:46;;;;;;;20.65;4.07;;;13.50;91.40;;;;;;4199643;28;20221;-54
2023/05/30 05:15:48;;;;;;;21.05;4.05;;;13.50;91.40;;;;;;4198270;28;20049;-56
2023/05/30 05:17:51;;;;;;;22.38;4.40;;;13.60;91.30;;;;;;4196689;28;20091;-59
2023/05/30 05:19:54;;;;;;;19.88;4.97;;;13.60;91.20;;;;;;4197859;28;20512;-57
2023/05/30 05:21:56;;;;;;;20.30;4.78;;;13.50;91.20;;;;;;4197895;28;20426;-58
2023/05/30 05:23:59;;;;;;;15.95;4.10;;;13.50;91.10;;;;;;4195747;28;20052;-57
2023/05/30 05:26:01;;;;;;;24.90;5.15;;;13.50;91.20;;;;;;4200096;28;20048;-57
2023/05/30 05:28:03;;;;;;;22.38;4.70;;;13.60;91.20;;;;;;4213089;28;20052;-57
2023/05/30 05:30:08;;;;;;;14.20;4.10;;;13.70;91.00;;;;;;4196254;28;20056;-57
2023/05/30 05:32:10;;;;;;;20.77;5.30;;;13.60;91.10;;;;;;4214110;28;20048;-57
2023/05/30 05:34:12;;;;;;;21.20;4.82;;;13.70;90.90;;;;;;4214036;28;20048;-57
2023/05/30 05:36:15;;;;;;;20.50;4.18;;;13.70;90.90;;;;;;4213887;28;20051;-58
2023/05/30 05:38:17;;;;;;;17.73;4.60;;;13.60;91.10;;;;;;4207360;28;20056;-55
2023/05/30 05:40:20;;;;;;;19.52;4.38;;;13.50;90.80;;;;;;4197343;28;20076;-55
2023/05/30 05:42:22;;;;;;;15.52;4.70;;;13.40;91.00;;;;;;4197144;28;20075;-55
2023/05/30 05:44:24;;;;;;;13.48;3.67;;;13.40;91.10;;;;;;4197309;28;20156;-58
2023/05/30 05:46:26;;;;;;;15.63;4.25;;;13.30;91.00;;;;;;4197288;28;20057;-57
2023/05/30 05:48:29;;;;;;;16.65;4.30;;;13.40;91.10;;;;;;4195937;28;20121;-57
2023/05/30 05:50:31;;;;;;;16.88;4.25;;;13.30;91.10;;;;;;4197171;28;20098;-57
2023/05/30 05:52:34;;;;;;;15.68;5.25;;;13.40;91.20;;;;;;4196938;28;20044;-58
2023/05/30 05:54:36;;;;;;;25.38;4.65;;;13.50;91.00;;;;;;4197241;28;20045;-57
2023/05/30 05:56:38;;;;;;;17.35;4.32;;;13.50;90.90;;;;;;4196249;28;20045;-58
2023/05/30 05:58:40;;;;;;;14.07;4.50;;;13.50;90.90;;;;;;4196868;28;20040;-58
2023/05/30 06:00:43;;;;;;;20.52;4.80;;;13.70;90.80;;;;;;4196721;28;20093;-57
2023/05/30 06:02:45;;;;;;;18.13;4.40;;;13.60;90.70;;;;;;4197334;28;20048;-57
2023/05/30 06:04:47;;;;;;;22.75;4.40;;;13.60;90.60;;;;;;4197163;28;20453;-58
2023/05/30 06:06:50;;;;;;;25.52;4.25;;;13.60;90.60;;;;;;4195697;28;20048;-56
2023/05/30 06:08:53;;;;;;;21.08;5.13;;;13.50;90.60;;;;;;4196985;28;20486;-57
2023/05/30 06:10:55;;;;;;;20.42;4.30;;;13.40;90.80;;;;;;4197391;28;20048;-58
2023/05/30 06:12:58;;;;;;;22.63;4.70;;;13.40;90.90;;;;;;4197122;28;20079;-57
2023/05/30 06:15:00;;;;;;;38.35;4.97;;;13.50;90.90;;;;;;4197082;28;20129;-58
2023/05/30 06:17:04;;;;;;;22.20;4.82;;;13.50;90.70;;;;;;4196146;28;20158;-61
2023/05/30 06:19:06;;;;;;;25.88;5.07;;;13.60;90.90;;;;;;4196745;28;20059;-58
2023/05/30 06:21:10;;;;;;;18.60;3.90;;;13.60;90.80;;;;;;4196862;28;20049;-57
2023/05/30 06:23:13;;;;;;;28.30;6.13;;;13.60;90.60;;;;;;4196827;28;20052;-56
2023/05/30 06:25:19;;;;;;;22.75;4.60;;;13.70;90.70;;;;;;4197119;28;20044;-55
2023/05/30 06:27:21;;;;;;;21.75;4.65;;;13.70;90.60;;;;;;4209598;28;20402;-57
2023/05/30 06:29:23;;;;;;;28.55;5.00;;;13.70;90.50;;;;;;4195459;28;20037;-58
2023/05/30 06:31:25;;;;;;;22.50;4.63;;;13.80;90.50;;;;;;4213541;28;20063;-57
2023/05/30 06:33:27;;;;;;;22.27;4.53;;;13.80;90.50;;;;;;4213530;28;20119;-58
2023/05/30 06:35:30;;;;;;;18.83;4.38;;;13.90;90.40;;;;;;4213264;28;20419;-57
2023/05/30 06:37:34;;;;;;;26.70;4.97;;;13.90;90.50;;;;;;4194438;28;20043;-58
2023/05/30 06:39:36;;;;;;;23.88;5.03;;;14.10;90.30;;;;;;4197228;28;20057;-57
2023/05/30 06:41:43;;;;;;;25.10;4.95;;;14.10;90.20;;;;;;4196702;28;20068;-56
2023/05/30 06:43:45;;;;;;;23.17;5.50;;;14.20;90.20;;;;;;4196497;28;20053;-60
2023/05/30 06:45:47;;;;;;;22.73;4.82;;;14.20;90.10;;;;;;4196963;28;20068;-57
2023/05/30 06:47:49;;;;;;;25.35;4.95;;;14.40;90.40;;;;;;4195881;28;20135;-58
2023/05/30 06:49:51;;;;;;;28.38;5.30;;;14.50;90.00;;;;;;4196683;28;20131;-58
2023/05/30 06:51:53;;;;;;;25.98;4.95;;;14.50;89.30;;;;;;4197682;28;20075;-55
2023/05/30 06:53:57;;;;;;;26.08;4.43;;;14.50;89.30;;;;;;4197996;28;20451;-59
2023/05/30 06:55:59;;;;;;;27.90;5.88;;;14.50;89.20;;;;;;4198046;28;20044;-56
2023/05/30 06:58:05;;;;;;;28.90;4.97;;;14.60;89.50;;;;;;4195574;28;20102;-59
2023/05/30 07:00:09;;;;;;;28.15;5.18;;;14.70;88.80;;;;;;4198075;28;20127;-57
2023/05/30 07:02:11;;;;;;;25.25;4.55;;;14.80;88.60;;;;;;4199689;28;20044;-58
2023/05/30 07:04:13;;;;;;;24.67;5.00;;;14.90;88.70;;;;;;4199165;28;20466;-57
2023/05/30 07:06:15;;;;;;;21.48;4.80;;;15.10;88.10;;;;;;4199559;28;20048;-57
2023/05/30 07:08:17;;;;;;;26.50;4.88;;;15.40;87.70;;;;;;4198317;28;20120;-57
2023/05/30 07:10:20;;;;;;;22.48;4.32;;;15.40;86.90;;;;;;4199328;28;20083;-58
2023/05/30 07:12:22;;;;;;;19.38;4.53;;;15.60;87.40;;;;;;4199530;28;20044;-57
2023/05/30 07:14:28;;;;;;;;;;;15.80;86.50;;;;;;4200036;28;20120;-57
2023/05/30 07:16:31;;;;;;;13.88;4.18;;;15.80;86.10;;;;;;4199378;28;19950;-58
2023/05/30 07:18:33;;;;;;;20.92;5.18;;;15.70;86.20;;;;;;4197964;28;20052;-57
2023/05/30 07:20:35;;;;;;;21.35;4.35;;;15.90;86.60;;;;;;4199504;28;20072;-57
2023/05/30 07:22:40;;;;;;;18.00;4.22;;;16.10;85.60;;;;;;4200455;28;20072;-59
2023/05/30 07:24:42;;;;;;;14.10;3.78;;;16.10;85.60;;;;;;4199665;28;20041;-57
2023/05/30 07:26:44;;;;;;;25.48;4.28;;;16.10;85.70;;;;;;4207736;28;20085;-58
2023/05/30 07:28:46;;;;;;;19.25;4.45;;;16.10;85.40;;;;;;4214914;28;20071;-57
2023/05/30 07:30:49;;;;;;;21.38;4.43;;;16.10;85.80;;;;;;4216090;28;20044;-57
2023/05/30 07:32:51;;;;;;;23.67;5.32;;;16.30;85.90;;;;;;4215777;28;20087;-56
2023/05/30 07:34:55;;;;;;;20.90;5.10;;;16.40;85.20;;;;;;4215954;28;20047;-58
2023/05/30 07:36:57;;;;;;;21.63;3.80;;;16.50;85.00;;;;;;4215264;28;20109;-57
2023/05/30 07:38:59;;;;;;;20.83;4.88;;;16.60;84.90;;;;;;4197620;28;20083;-57
2023/05/30 07:41:02;;;;;;;26.92;5.15;;;16.70;84.70;;;;;;4199065;28;20048;-57
2023/05/30 07:43:05;;;;;;;24.73;4.88;;;16.60;84.10;;;;;;4198794;28;20084;-57
2023/05/30 07:45:08;;;;;;;23.20;4.60;;;16.70;84.40;;;;;;4199069;28;20433;-58
2023/05/30 07:47:12;;;;;;;18.05;4.25;;;16.70;84.30;;;;;;4198067;28;20694;-57
2023/05/30 07:49:14;;;;;;;22.55;4.82;;;16.80;84.40;;;;;;4198455;28;20413;-58
2023/05/30 07:51:17;;;;;;;20.30;4.65;;;16.90;84.00;;;;;;4198935;28;20094;-57
2023/05/30 07:53:20;;;;;;;36.88;5.70;;;16.80;84.20;;;;;;4199049;28;20051;-57
2023/05/30 07:55:22;;;;;;;37.03;5.78;;;16.80;85.80;;;;;;4198776;28;20055;-56
2023/05/30 07:57:24;;;;;;;24.52;4.85;;;16.90;87.00;;;;;;4197794;28;20057;-57
2023/05/30 07:59:26;;;;;;;21.15;4.43;;;16.90;85.20;;;;;;4198476;28;20087;-58
2023/05/30 08:01:28;;;;;;;24.45;4.45;;;16.90;84.40;;;;;;4198584;28;20040;-57
2023/05/30 08:03:32;;;;;;;20.98;4.90;;;17.00;85.10;;;;;;4198664;28;20461;-57
2023/05/30 08:05:35;;;;;;;25.90;4.70;;;17.20;84.60;;;;;;4198557;28;20457;-57
2023/05/30 08:07:37;;;;;;;14.45;3.47;;;17.30;84.40;;;;;;4197888;28;20055;-57
2023/05/30 08:09:41;;;;;;;34.27;4.97;;;17.50;84.00;;;;;;4199094;28;20402;-55
2023/05/30 08:11:43;;;;;;;18.05;4.63;;;17.60;83.70;;;;;;4198031;28;20740;-55
2023/05/30 08:13:45;;;;;;;41.35;5.20;;;17.60;82.90;;;;;;4198762;28;20098;-56
2023/05/30 08:15:47;;;;;;;34.42;5.00;;;17.70;82.80;;;;;;4198366;28;20051;-56
2023/05/30 08:17:49;;;;;;;28.55;5.20;;;17.80;83.20;;;;;;4197321;28;20117;-57
2023/05/30 08:19:55;;;;;;;23.52;4.97;;;18.00;82.90;;;;;;4198555;28;20054;-57
2023/05/30 08:21:57;;;;;;;27.90;5.80;;;18.00;82.30;;;;;;4198444;28;20048;-58
2023/05/30 08:24:00;;;;;;;27.33;4.88;;;17.90;82.40;;;;;;4198399;28;20064;-57
2023/05/30 08:26:08;;;;;;;22.15;5.20;;;18.10;82.00;;;;;;4201593;28;20136;-56
2023/05/30 08:28:11;;;;;;;;;;;18.00;81.60;;;;;;4196630;28;20045;-55
2023/05/30 08:30:13;;;;;;;29.23;5.50;;;18.10;81.90;;;;;;4214988;28;19920;-57
2023/05/30 08:32:15;;;;;;;24.10;5.47;;;18.10;82.30;;;;;;4214622;28;20044;-55
2023/05/30 08:34:17;;;;;;;24.63;4.75;;;18.20;81.90;;;;;;4214871;28;20054;-54
2023/05/30 08:36:21;;;;;;;28.70;4.95;;;18.20;81.20;;;;;;4196979;28;20057;-56
2023/05/30 08:38:23;;;;;;;21.40;4.23;;;18.30;81.00;;;;;;4208450;28;20036;-55
2023/05/30 08:40:26;;;;;;;28.90;5.95;;;18.10;81.40;;;;;;4200041;28;20553;-57
2023/05/30 08:42:28;;;;;;;21.45;4.63;;;18.20;82.10;;;;;;4199259;28;20477;-55
2023/05/30 08:44:31;;;;;;;20.23;4.45;;;18.40;82.00;;;;;;4198263;28;20040;-57
2023/05/30 08:46:35;;;;;;;24.42;5.57;;;18.50;81.80;;;;;;4197862;28;20047;-58
2023/05/30 08:48:38;;;;;;;24.58;5.55;;;18.60;80.90;;;;;;4195733;28;20102;-57
2023/05/30 08:50:41;;;;;;;17.45;4.35;;;18.50;81.10;;;;;;4196690;28;20076;-57
2023/05/30 08:52:48;;;;;;;23.08;4.10;;;18.50;80.90;;;;;;4197987;28;20048;-54
2023/05/30 08:55:01;;;;;;;20.77;4.43;;;18.60;80.60;;;;;;4198030;28;20047;-55
2023/05/30 08:57:09;;;;;;;20.80;4.82;;;18.70;80.20;;;;;;4197581;28;20071;-55
2023/05/30 08:59:13;;;;;;;20.50;4.85;;;18.60;80.50;;;;;;4197017;28;20052;-56
2023/05/30 09:01:16;;;;;;;23.85;4.57;;;18.50;80.50;;;;;;4197361;28;20127;-55
2023/05/30 09:03:20;;;;;;;29.42;4.78;;;18.40;81.80;;;;;;4198142;28;20414;-54
2023/05/30 09:05:22;;;;;;;19.60;4.80;;;18.60;80.80;;;;;;4197763;28;20163;-54
2023/05/30 09:07:27;;;;;;;19.15;4.82;;;18.50;79.90;;;;;;4196812;28;20548;-55
2023/05/30 09:09:33;;;;;;;26.35;5.50;;;18.40;80.30;;;;;;4197668;28;20076;-55
2023/05/30 09:11:35;;;;;;;27.65;5.13;;;18.20;80.60;;;;;;4197826;28;20098;-54
2023/05/30 09:13:37;;;;;;;31.52;6.10;;;18.40;81.10;;;;;;4198074;28;20048;-55
2023/05/30 09:15:40;;;;;;;35.60;6.10;;;18.60;80.90;;;;;;4197740;28;20185;-55
2023/05/30 09:17:42;;;;;;;19.38;4.70;;;18.80;80.70;;;;;;4197288;28;20486;-55
2023/05/30 09:19:45;;;;;;;23.73;4.93;;;18.90;80.50;;;;;;4197508;28;20040;-54
2023/05/30 09:21:47;;;;;;;17.80;5.03;;;19.00;79.60;;;;;;4197541;28;20120;-58
2023/05/30 09:23:50;;;;;;;21.92;4.20;;;18.80;79.10;;;;;;4196680;28;20047;-56
2023/05/30 09:25:54;;;;;;;21.98;4.93;;;18.70;79.60;;;;;;4198982;28;20055;-58
2023/05/30 09:27:59;;;;;;;21.48;4.93;;;18.70;79.90;;;;;;4213173;28;20126;-56
2023/05/30 09:30:09;;;;;;;18.08;3.90;;;18.60;79.90;;;;;;4213768;28;20082;-56
2023/05/30 09:32:11;;;;;;;26.23;4.20;;;18.50;80.10;;;;;;4214287;28;20051;-59
2023/05/30 09:34:17;;;;;;;17.60;4.47;;;18.60;80.60;;;;;;4213947;28;20051;-58
2023/05/30 09:36:20;;;;;;;22.13;4.82;;;18.90;80.10;;;;;;4213967;28;20052;-57
2023/05/30 09:38:24;;;;;;;17.70;4.68;;;19.00;80.00;;;;;;4206987;28;20131;-54
2023/05/30 09:40:26;;;;;;;22.25;4.60;;;19.30;79.80;;;;;;4197516;28;20486;-54
2023/05/30 09:42:38;;;;;;;20.05;4.68;;;19.30;79.00;;;;;;4197111;28;20045;-57
2023/05/30 09:44:52;;;;;;;34.47;5.68;;;19.30;79.00;;;;;;4197300;28;20056;-57
2023/05/30 09:46:55;;;;;;;25.35;5.10;;;19.40;79.00;;;;;;4197391;28;20082;-55
2023/05/30 09:48:58;;;;;;;37.13;5.03;;;19.50;79.20;;;;;;4196674;28;20094;-54
2023/05/30 09:51:01;;;;;;;28.50;5.47;;;19.70;78.90;;;;;;4197333;28;20086;-58
2023/05/30 09:53:03;;;;;;;27.85;4.55;;;19.70;77.90;;;;;;4197427;28;20409;-53
2023/05/30 09:55:06;;;;;;;14.45;4.53;;;19.50;78.10;;;;;;4197145;28;20399;-57
2023/05/30 09:57:08;;;;;;;19.52;4.78;;;19.60;78.20;;;;;;4197291;28;20044;-57
2023/05/30 09:59:14;;;;;;;24.00;4.35;;;19.70;78.20;;;;;;4196540;28;20552;-54
2023/05/30 10:01:18;;;;;;;15.02;4.07;;;19.70;77.80;;;;;;4197613;28;20044;-57
2023/05/30 10:03:21;;;;;;;;;;;19.50;78.50;;;;;;4197860;28;20120;-66
2023/05/30 10:05:24;;;;;;;17.40;4.82;;;19.60;78.20;;;;;;4197276;28;20007;-57
2023/05/30 10:07:27;;;;;;;17.17;4.68;;;19.50;78.70;;;;;;4196633;28;20086;-57
2023/05/30 10:09:29;;;;;;;15.65;4.35;;;19.40;78.40;;;;;;4196807;28;20166;-57
2023/05/30 10:11:32;;;;;;;23.40;4.72;;;19.60;78.60;;;;;;4197349;28;20152;-55
2023/05/30 10:13:34;;;;;;;17.67;4.75;;;19.80;78.00;;;;;;4196918;28;20086;-55
2023/05/30 10:15:39;;;;;;;19.95;4.63;;;20.00;78.20;;;;;;4195699;28;20458;-57
2023/05/30 10:17:46;;;;;;;21.65;4.15;;;20.20;77.90;;;;;;4196438;28;20056;-57
2023/05/30 10:19:55;;;;;;;21.67;4.78;;;20.40;77.50;;;;;;4197016;28;20060;-57
2023/05/30 10:21:58;;;;;;;34.85;5.20;;;20.40;76.70;;;;;;4196858;28;20059;-57
2023/05/30 10:24:03;;;;;;;18.20;4.05;;;20.50;77.00;;;;;;4196905;28;20052;-63
2023/05/30 10:26:07;;;;;;;19.55;3.88;;;20.40;76.20;;;;;;4200124;28;20478;-57
2023/05/30 10:28:18;;;;;;;18.17;4.10;;;20.30;76.60;;;;;;4212301;28;20375;-56
2023/05/30 10:30:22;;;;;;;22.33;4.38;;;20.10;76.90;;;;;;4213591;28;20058;-57
2023/05/30 10:32:31;;;;;;;24.05;4.50;;;19.90;77.70;;;;;;4213636;28;20079;-55
2023/05/30 10:34:41;;;;;;;15.07;4.32;;;20.00;77.10;;;;;;4203633;28;20435;-54